createdAt,value
2018-03-27T00:01:32.212Z,3.65
2018-03-27T00:03:59.799Z,6.15
2018-03-27T00:06:27.366Z,4.43
2018-03-27T00:08:55.494Z,3.62
2018-03-27T00:11:23.103Z,2.97
2018-03-27T00:13:51.183Z,2.75
2018-03-27T00:16:19.332Z,5.00
2018-03-27T00:18:47.451Z,6.35
2018-03-27T00:21:15.356Z,4.62
2018-03-27T00:23:43.212Z,3.10
2018-03-27T00:26:11.432Z,2.78
2018-03-27T00:28:50.805Z,2.50
2018-03-27T00:31:30.068Z,5.43
2018-03-27T00:34:10.616Z,5.93
2018-03-27T00:36:49.849Z,4.70
2018-03-27T00:39:30.109Z,2.85
2018-03-27T00:42:18.444Z,2.65
2018-03-27T00:44:46.014Z,5.32
2018-03-27T00:47:13.611Z,4.00
2018-03-27T00:49:42.197Z,3.75
2018-03-27T00:52:10.837Z,2.83
2018-03-27T00:54:38.416Z,2.62
2018-03-27T00:57:05.997Z,4.00
2018-03-27T00:59:34.380Z,5.07
2018-03-27T01:02:02.526Z,6.85
2018-03-27T01:04:30.113Z,2.58
2018-03-27T01:06:57.692Z,4.20
2018-03-27T01:09:25.721Z,8.68
2018-03-27T01:11:54.408Z,3.78
2018-03-27T01:14:22.052Z,6.35
2018-03-27T01:16:50.600Z,5.18
2018-03-27T01:19:19.529Z,4.90
2018-03-27T01:21:47.124Z,3.58
2018-03-27T01:24:14.695Z,4.00
2018-03-27T01:26:42.328Z,3.92
2018-03-27T01:29:09.995Z,4.95
2018-03-27T01:31:37.648Z,5.28
2018-03-27T01:34:05.286Z,7.70
2018-03-27T01:36:32.850Z,3.87
2018-03-27T01:39:00.427Z,3.75
2018-03-27T01:41:28.053Z,6.70
2018-03-27T01:43:55.838Z,5.45
2018-03-27T01:46:23.776Z,4.43
2018-03-27T01:48:51.638Z,6.20
2018-03-27T01:51:20.057Z,4.57
2018-03-27T01:53:47.708Z,3.80
2018-03-27T01:56:16.132Z,3.87
2018-03-27T01:58:44.329Z,4.40
2018-03-27T02:01:14.372Z,4.80
2018-03-27T02:03:43.114Z,4.15
2018-03-27T02:06:11.193Z,5.25
2018-03-27T02:08:39.412Z,4.47
2018-03-27T02:11:14.456Z,4.93
2018-03-27T02:13:48.824Z,3.58
2018-03-27T02:16:22.107Z,6.10
2018-03-27T02:18:56.126Z,5.82
2018-03-27T02:21:24.353Z,3.42
2018-03-27T02:23:52.484Z,4.82
2018-03-27T02:26:20.148Z,3.00
2018-03-27T02:28:47.968Z,3.15
2018-03-27T02:31:15.548Z,3.42
2018-03-27T02:33:43.260Z,4.12
2018-03-27T02:36:10.985Z,5.75
2018-03-27T02:38:38.570Z,3.17
2018-03-27T02:41:06.223Z,11.82
2018-03-27T02:43:34.031Z,4.20
2018-03-27T02:46:01.653Z,7.37
2018-03-27T02:48:29.265Z,5.22
2018-03-27T02:50:57.838Z,5.95
2018-03-27T02:53:25.462Z,6.62
2018-03-27T02:55:53.359Z,4.25
2018-03-27T02:58:21.519Z,4.32
2018-03-27T03:00:49.984Z,4.75
2018-03-27T03:03:18.283Z,4.28
2018-03-27T03:05:45.886Z,5.50
2018-03-27T03:08:14.231Z,7.15
2018-03-27T03:10:42.451Z,3.35
2018-03-27T03:13:10.613Z,4.32
2018-03-27T03:15:38.647Z,4.00
2018-03-27T03:18:06.844Z,3.65
2018-03-27T03:20:34.404Z,5.32
2018-03-27T03:23:01.971Z,5.53
2018-03-27T03:25:29.581Z,5.32
2018-03-27T03:27:57.152Z,5.97
2018-03-27T03:30:24.818Z,4.80
2018-03-27T03:32:52.413Z,5.10
2018-03-27T03:35:20.022Z,4.93
2018-03-27T03:37:47.849Z,3.75
2018-03-27T03:40:15.569Z,5.15
2018-03-27T03:42:43.317Z,5.07
2018-03-27T03:45:11.120Z,4.62
2018-03-27T03:47:38.705Z,4.35
2018-03-27T03:50:07.231Z,6.32
2018-03-27T03:52:34.809Z,6.37
2018-03-27T03:55:02.358Z,6.12
2018-03-27T03:57:30.792Z,6.85
2018-03-27T03:59:59.025Z,4.40
2018-03-27T04:02:26.639Z,5.68
2018-03-27T04:04:54.280Z,7.47
2018-03-27T04:07:21.913Z,3.80
2018-03-27T04:09:50.009Z,10.23
2018-03-27T04:12:18.524Z,5.28
2018-03-27T04:14:46.073Z,7.05
2018-03-27T04:17:14.435Z,8.32
2018-03-27T04:19:43.529Z,8.60
2018-03-27T04:22:11.125Z,4.05
2018-03-27T04:24:38.711Z,5.85
2018-03-27T04:27:06.323Z,5.78
2018-03-27T04:29:33.879Z,4.93
2018-03-27T04:32:01.424Z,5.65
2018-03-27T04:34:29.027Z,6.55
2018-03-27T04:36:56.588Z,5.12
2018-03-27T04:39:24.555Z,6.30
2018-03-27T04:41:52.287Z,7.00
2018-03-27T04:44:19.887Z,8.95
2018-03-27T04:46:47.468Z,11.45
2018-03-27T04:49:15.801Z,6.53
2018-03-27T04:51:43.930Z,5.65
2018-03-27T04:54:12.329Z,8.90
2018-03-27T04:56:41.525Z,5.47
2018-03-27T04:59:10.118Z,9.73
2018-03-27T05:01:38.279Z,5.30
2018-03-27T05:04:05.823Z,5.60
2018-03-27T05:06:33.463Z,6.18
2018-03-27T05:09:01.577Z,6.70
2018-03-27T05:11:29.832Z,4.40
2018-03-27T05:13:58.159Z,6.47
2018-03-27T05:16:25.696Z,6.82
2018-03-27T05:18:53.861Z,6.10
2018-03-27T05:21:21.472Z,6.60
2018-03-27T05:23:49.028Z,6.32
2018-03-27T05:26:16.634Z,7.28
2018-03-27T05:28:44.186Z,9.07
2018-03-27T05:31:12.605Z,5.47
2018-03-27T05:33:40.724Z,12.07
2018-03-27T05:36:08.276Z,7.00
2018-03-27T05:38:35.859Z,8.18
2018-03-27T05:41:03.480Z,6.07
2018-03-27T05:43:31.096Z,7.62
2018-03-27T05:45:58.693Z,5.43
2018-03-27T05:48:26.304Z,11.55
2018-03-27T05:50:55.268Z,9.82
2018-03-27T05:53:22.933Z,8.57
2018-03-27T05:55:50.584Z,7.20
2018-03-27T05:58:18.770Z,5.57
2018-03-27T06:00:47.082Z,11.60
2018-03-27T06:03:14.684Z,8.60
2018-03-27T06:05:42.578Z,5.57
2018-03-27T06:08:12.018Z,6.12
2018-03-27T06:10:40.811Z,8.07
2018-03-27T06:13:09.089Z,8.48
2018-03-27T06:15:36.676Z,8.85
2018-03-27T06:18:04.884Z,9.02
2018-03-27T06:20:32.572Z,7.97
2018-03-27T06:23:00.860Z,9.57
2018-03-27T06:25:28.582Z,8.73
2018-03-27T06:27:56.240Z,11.93
2018-03-27T06:30:24.017Z,11.95
2018-03-27T06:32:52.730Z,6.97
2018-03-27T06:35:20.356Z,8.85
2018-03-27T06:37:48.012Z,5.20
2018-03-27T06:40:15.620Z,9.07
2018-03-27T06:42:43.440Z,7.25
2018-03-27T06:45:11.932Z,8.18
2018-03-27T06:47:40.157Z,8.32
2018-03-27T06:50:08.704Z,6.47
2018-03-27T06:52:36.417Z,7.40
2018-03-27T06:55:04.297Z,11.30
2018-03-27T06:57:33.491Z,10.15
2018-03-27T07:00:02.102Z,6.03
2018-03-27T07:02:30.002Z,6.47
2018-03-27T07:04:58.404Z,5.50
2018-03-27T07:07:26.261Z,6.03
2018-03-27T07:09:55.467Z,9.23
2018-03-27T07:12:26.626Z,9.67
2018-03-27T07:14:54.369Z,8.73
2018-03-27T07:17:22.630Z,8.73
2018-03-27T07:19:51.322Z,4.37
2018-03-27T07:22:19.181Z,7.47
2018-03-27T07:24:46.800Z,8.77
2018-03-27T07:27:14.524Z,12.23
2018-03-27T07:29:43.080Z,7.67
2018-03-27T07:32:11.367Z,8.37
2018-03-27T07:34:39.134Z,7.67
2018-03-27T07:37:06.734Z,4.43
2018-03-27T07:39:34.309Z,3.40
2018-03-27T07:42:02.006Z,8.57
2018-03-27T07:44:30.025Z,6.10
2018-03-27T07:46:57.659Z,7.57
2018-03-27T07:49:25.307Z,6.37
2018-03-27T07:51:54.158Z,9.00
2018-03-27T07:54:21.727Z,3.10
2018-03-27T07:56:50.078Z,8.07
2018-03-27T07:59:18.299Z,8.50
2018-03-27T08:01:46.646Z,7.33
2018-03-27T08:04:15.400Z,10.00
2018-03-27T08:06:43.915Z,6.60
2018-03-27T08:09:12.370Z,4.40
2018-03-27T08:11:41.121Z,2.90
2018-03-27T08:14:08.971Z,5.40
2018-03-27T08:16:36.556Z,4.00
2018-03-27T08:19:04.832Z,7.43
2018-03-27T08:21:33.083Z,6.70
2018-03-27T08:24:00.836Z,3.30
2018-03-27T08:26:28.435Z,3.87
2018-03-27T08:28:56.146Z,5.23
2018-03-27T08:31:23.946Z,3.97
2018-03-27T08:33:51.873Z,8.93
2018-03-27T08:36:19.720Z,7.60
2018-03-27T08:38:47.405Z,2.40
2018-03-27T08:41:15.169Z,2.80
2018-03-27T08:43:42.857Z,1.67
2018-03-27T08:46:10.981Z,4.37
2018-03-27T08:48:38.606Z,7.13
2018-03-27T08:51:06.914Z,4.20
2018-03-27T08:53:34.500Z,2.00
2018-03-27T08:56:02.684Z,4.57
2018-03-27T08:58:30.742Z,6.40
2018-03-27T09:00:58.757Z,4.20
2018-03-27T09:03:26.314Z,4.07
2018-03-27T09:05:54.070Z,2.47
2018-03-27T09:08:23.123Z,4.57
2018-03-27T09:10:51.390Z,5.07
2018-03-27T09:13:18.943Z,4.20
2018-03-27T09:15:46.482Z,6.70
2018-03-27T09:18:14.752Z,2.67
2018-03-27T09:20:42.712Z,3.70
2018-03-27T09:23:10.327Z,10.00
2018-03-27T09:25:37.898Z,6.30
2018-03-27T09:28:05.426Z,6.83
2018-03-27T09:30:33.016Z,1.87
2018-03-27T09:33:00.573Z,3.03
2018-03-27T09:35:28.160Z,3.57
2018-03-27T09:37:55.781Z,3.67
2018-03-27T09:40:23.367Z,4.87
2018-03-27T09:42:51.074Z,2.00
2018-03-27T09:45:18.625Z,3.67
2018-03-27T09:47:46.217Z,3.17
2018-03-27T09:50:14.504Z,4.27
2018-03-27T09:52:42.529Z,2.30
2018-03-27T09:55:10.093Z,7.03
2018-03-27T09:57:38.114Z,5.33
2018-03-27T10:00:06.592Z,4.80
2018-03-27T10:02:34.147Z,1.90
2018-03-27T10:05:02.470Z,3.77
2018-03-27T10:07:30.084Z,2.90
2018-03-27T10:09:58.462Z,3.70
2018-03-27T10:12:26.460Z,2.97
2018-03-27T10:14:55.088Z,3.07
2018-03-27T10:17:23.628Z,2.80
2018-03-27T10:19:51.778Z,3.10
2018-03-27T10:22:19.952Z,3.90
2018-03-27T10:24:47.505Z,2.70
2018-03-27T10:27:15.036Z,5.67
2018-03-27T10:29:42.752Z,4.27
2018-03-27T10:32:10.314Z,4.80
2018-03-27T10:34:37.863Z,2.03
2018-03-27T10:37:05.500Z,3.93
2018-03-27T10:39:33.065Z,2.83
2018-03-27T10:42:00.596Z,3.10
2018-03-27T10:44:28.154Z,2.17
2018-03-27T10:46:55.807Z,5.97
2018-03-27T10:49:23.405Z,2.43
2018-03-27T10:51:51.600Z,1.50
2018-03-27T10:54:19.116Z,2.50
2018-03-27T10:56:47.310Z,1.03
2018-03-27T10:59:15.968Z,1.77
2018-03-27T11:01:44.200Z,6.33
2018-03-27T11:04:11.831Z,3.37
2018-03-27T11:06:39.364Z,4.23
2018-03-27T11:09:07.797Z,2.13
2018-03-27T11:11:35.641Z,2.07
2018-03-27T11:14:03.256Z,2.90
2018-03-27T11:16:30.847Z,1.50
2018-03-27T11:18:59.364Z,3.13
2018-03-27T11:21:27.744Z,1.87
2018-03-27T11:23:55.453Z,2.83
2018-03-27T11:26:23.005Z,1.40
2018-03-27T11:28:50.599Z,4.10
2018-03-27T11:31:18.173Z,1.73
2018-03-27T11:33:45.734Z,1.73
2018-03-27T11:36:13.549Z,2.40
2018-03-27T11:38:41.072Z,1.43
2018-03-27T11:41:08.603Z,3.40
2018-03-27T11:43:36.200Z,2.53
2018-03-27T11:46:03.832Z,3.03
2018-03-27T11:48:32.108Z,1.50
2018-03-27T11:51:00.243Z,3.73
2018-03-27T11:53:28.575Z,4.23
2018-03-27T11:55:56.468Z,2.97
2018-03-27T11:58:24.901Z,1.60
2018-03-27T12:00:53.279Z,3.90
2018-03-27T12:03:20.838Z,2.43
2018-03-27T12:05:48.506Z,2.60
2018-03-27T12:08:16.577Z,4.70
2018-03-27T12:10:45.266Z,2.37
2018-03-27T12:13:13.067Z,5.87
2018-03-27T12:15:40.600Z,2.93
2018-03-27T12:18:08.560Z,2.67
2018-03-27T12:20:36.733Z,2.20
2018-03-27T12:23:04.312Z,3.90
2018-03-27T12:25:31.877Z,2.13
2018-03-27T12:27:59.438Z,2.93
2018-03-27T12:30:26.967Z,1.50
2018-03-27T12:32:54.789Z,3.27
2018-03-27T12:35:22.456Z,2.13
2018-03-27T12:37:49.996Z,3.83
2018-03-27T12:40:17.523Z,3.20
2018-03-27T12:42:45.091Z,2.03
2018-03-27T12:45:12.950Z,2.93
2018-03-27T12:47:40.530Z,1.63
2018-03-27T12:50:08.869Z,3.63
2018-03-27T12:52:36.987Z,2.83
2018-03-27T12:55:04.568Z,4.60
2018-03-27T12:57:32.828Z,1.87
2018-03-27T13:00:01.168Z,5.00
2018-03-27T13:02:28.705Z,1.57
2018-03-27T13:04:56.252Z,2.40
2018-03-27T13:07:23.874Z,3.37
2018-03-27T13:09:52.058Z,2.67
2018-03-27T13:12:20.132Z,3.40
2018-03-27T13:14:47.655Z,2.03
2018-03-27T13:17:15.709Z,1.67
2018-03-27T13:19:44.083Z,2.80
2018-03-27T13:22:12.288Z,3.00
2018-03-27T13:24:39.832Z,1.20
2018-03-27T13:27:07.445Z,2.50
2018-03-27T13:29:34.997Z,1.57
2018-03-27T13:32:02.525Z,5.37
2018-03-27T13:34:30.896Z,2.53
2018-03-27T13:36:58.440Z,3.10
2018-03-27T13:39:25.997Z,3.87
2018-03-27T13:41:53.706Z,2.57
2018-03-27T13:44:21.233Z,2.73
2018-03-27T13:46:48.889Z,3.50
2018-03-27T13:49:17.223Z,5.53
2018-03-27T13:51:45.333Z,2.17
2018-03-27T13:54:13.721Z,6.23
2018-03-27T13:56:42.441Z,4.37
2018-03-27T13:59:10.582Z,1.90
2018-03-27T14:01:38.527Z,2.20
2018-03-27T14:04:06.071Z,3.27
2018-03-27T14:06:33.608Z,1.50
2018-03-27T14:09:01.637Z,2.70
2018-03-27T14:11:29.845Z,1.60
2018-03-27T14:13:57.388Z,2.43
2018-03-27T14:16:24.938Z,5.93
2018-03-27T14:18:53.121Z,2.70
2018-03-27T14:21:21.476Z,1.63
2018-03-27T14:23:49.025Z,2.20
2018-03-27T14:26:16.571Z,2.77
2018-03-27T14:28:44.162Z,2.07
2018-03-27T14:31:11.750Z,2.10
2018-03-27T14:33:39.432Z,4.90
2018-03-27T14:36:07.064Z,2.10
2018-03-27T14:38:34.600Z,1.77
2018-03-27T14:41:02.168Z,3.23
2018-03-27T14:43:29.732Z,2.50
2018-03-27T14:45:58.120Z,3.03
2018-03-27T14:48:25.866Z,2.05
2018-03-27T14:50:54.431Z,2.23
2018-03-27T14:53:21.949Z,1.60
2018-03-27T14:55:49.534Z,2.17
2018-03-27T14:58:17.570Z,1.70
2018-03-27T15:00:46.101Z,2.30
2018-03-27T15:03:14.773Z,8.30
2018-03-27T15:05:47.872Z,3.43
2018-03-27T15:08:16.196Z,1.90
2018-03-27T15:10:45.018Z,4.60
2018-03-27T15:13:12.997Z,4.00
2018-03-27T15:15:40.548Z,3.67
2018-03-27T15:18:08.878Z,2.87
2018-03-27T15:20:37.049Z,1.50
2018-03-27T15:23:04.608Z,4.07
2018-03-27T15:25:32.140Z,2.00
2018-03-27T15:27:59.735Z,3.00
2018-03-27T15:30:27.269Z,1.60
2018-03-27T15:32:55.135Z,3.93
2018-03-27T15:35:23.009Z,1.80
2018-03-27T15:37:50.564Z,2.37
2018-03-27T15:40:18.121Z,3.13
2018-03-27T15:42:45.789Z,2.73
2018-03-27T15:45:14.165Z,2.83
2018-03-27T15:47:41.754Z,2.77
2018-03-27T15:50:09.844Z,2.07
2018-03-27T15:52:38.294Z,3.57
2018-03-27T15:55:05.848Z,2.67
2018-03-27T15:57:33.797Z,5.47
2018-03-27T16:00:01.881Z,3.90
2018-03-27T16:02:29.431Z,3.17
2018-03-27T16:04:56.988Z,2.30
2018-03-27T16:07:24.547Z,1.70
2018-03-27T16:09:52.684Z,10.87
2018-03-27T16:12:20.729Z,6.07
2018-03-27T16:14:48.292Z,5.00
2018-03-27T16:17:17.148Z,3.73
2018-03-27T16:19:45.084Z,1.70
2018-03-27T16:22:12.975Z,3.03
2018-03-27T16:24:40.578Z,1.80
2018-03-27T16:27:08.141Z,2.17
2018-03-27T16:29:35.744Z,3.23
2018-03-27T16:32:03.317Z,2.93
2018-03-27T16:34:30.840Z,3.23
2018-03-27T16:36:58.762Z,4.27
2018-03-27T16:39:26.325Z,2.40
2018-03-27T16:41:54.924Z,2.43
2018-03-27T16:44:22.486Z,2.83
2018-03-27T16:46:50.923Z,2.73
2018-03-27T16:49:18.528Z,5.53
2018-03-27T16:51:46.600Z,5.57
2018-03-27T16:54:14.128Z,2.37
2018-03-27T16:56:43.313Z,2.30
2018-03-27T16:59:11.833Z,2.20
2018-03-27T17:01:40.803Z,2.40
2018-03-27T17:04:08.865Z,5.07
2018-03-27T17:06:36.470Z,2.77
2018-03-27T17:09:04.709Z,6.27
2018-03-27T17:11:32.764Z,5.93
2018-03-27T17:14:00.313Z,3.50
2018-03-27T17:16:27.840Z,7.33
2018-03-27T17:18:55.838Z,4.63
2018-03-27T17:21:24.328Z,11.63
2018-03-27T17:23:51.960Z,10.70
2018-03-27T17:26:19.497Z,20.33
2018-03-27T17:28:47.081Z,16.83
2018-03-27T17:31:14.651Z,9.60
2018-03-27T17:33:42.796Z,7.20
2018-03-27T17:36:10.413Z,9.20
2018-03-27T17:38:38.894Z,16.73
2018-03-27T17:41:06.484Z,7.07
2018-03-27T17:43:34.021Z,10.10
2018-03-27T17:46:01.683Z,12.87
2018-03-27T17:48:29.273Z,20.57
2018-03-27T17:50:57.477Z,8.20
2018-03-27T17:53:25.062Z,11.70
2018-03-27T17:55:53.037Z,4.33
2018-03-27T17:58:21.400Z,11.90
2018-03-27T18:00:49.334Z,6.03
2018-03-27T18:03:16.900Z,11.23
2018-03-27T18:05:44.466Z,7.27
2018-03-27T18:08:12.702Z,9.40
2018-03-27T18:10:40.846Z,8.33
2018-03-27T18:13:08.452Z,16.27
2018-03-27T18:15:36.021Z,5.97
2018-03-27T18:18:04.195Z,14.80
2018-03-27T18:20:32.504Z,11.87
2018-03-27T18:23:00.060Z,15.17
2018-03-27T18:25:27.627Z,10.13
2018-03-27T18:27:55.210Z,14.70
2018-03-27T18:30:22.978Z,24.40
2018-03-27T18:32:50.618Z,21.83
2018-03-27T18:35:18.198Z,13.10
2018-03-27T18:37:46.680Z,18.87
2018-03-27T18:40:14.304Z,10.03
2018-03-27T18:42:43.394Z,11.48
2018-03-27T18:45:11.128Z,14.02
2018-03-27T18:47:40.204Z,15.13
2018-03-27T18:50:08.681Z,21.25
2018-03-27T18:52:36.707Z,8.53
2018-03-27T18:55:04.319Z,20.10
2018-03-27T18:57:32.795Z,6.43
2018-03-27T19:00:01.079Z,4.57
2018-03-27T19:02:28.640Z,8.18
2018-03-27T19:04:56.302Z,10.82
2018-03-27T19:07:24.157Z,6.30
2018-03-27T19:09:52.451Z,10.75
2018-03-27T19:12:20.472Z,11.33
2018-03-27T19:14:48.389Z,14.43
2018-03-27T19:17:16.765Z,7.40
2018-03-27T19:19:44.909Z,10.85
2018-03-27T19:22:13.550Z,4.95
2018-03-27T19:24:41.694Z,12.60
2018-03-27T19:27:09.378Z,7.20
2018-03-27T19:29:37.015Z,12.15
2018-03-27T19:32:04.679Z,19.67
2018-03-27T19:34:32.961Z,13.38
2018-03-27T19:37:00.590Z,10.35
2018-03-27T19:39:28.149Z,6.57
2018-03-27T19:41:55.834Z,18.08
2018-03-27T19:44:23.511Z,12.43
2018-03-27T19:46:52.503Z,8.65
2018-03-27T19:49:20.175Z,8.48
2018-03-27T19:51:48.451Z,10.60
2018-03-27T19:54:16.219Z,9.77
2018-03-27T19:56:45.120Z,6.20
2018-03-27T19:59:13.865Z,8.40
2018-03-27T20:01:44.236Z,7.53
2018-03-27T20:04:12.173Z,8.10
2018-03-27T20:06:39.730Z,6.00
2018-03-27T20:09:07.983Z,5.10
2018-03-27T20:11:36.307Z,7.32
2018-03-27T20:14:03.985Z,4.82
2018-03-27T20:16:31.599Z,5.65
2018-03-27T20:18:59.942Z,5.65
2018-03-27T20:21:28.253Z,2.67
2018-03-27T20:23:55.823Z,9.33
2018-03-27T20:26:23.608Z,4.32
2018-03-27T20:28:51.565Z,4.18
2018-03-27T20:31:20.146Z,8.00
2018-03-27T20:33:48.372Z,5.95
2018-03-27T20:36:15.988Z,6.80
2018-03-27T20:38:43.861Z,2.42
2018-03-27T20:41:11.607Z,6.20
2018-03-27T20:43:39.194Z,5.85
2018-03-27T20:46:06.936Z,9.60
2018-03-27T20:48:34.513Z,4.95
2018-03-27T20:51:02.967Z,4.35
2018-03-27T20:53:30.574Z,8.00
2018-03-27T20:55:58.614Z,11.88
2018-03-27T20:58:26.717Z,9.32
2018-03-27T21:00:54.710Z,4.10
2018-03-27T21:03:22.412Z,4.95
2018-03-27T21:05:50.034Z,7.85
2018-03-27T21:08:18.245Z,10.75
2018-03-27T21:10:46.462Z,8.93
2018-03-27T21:13:14.065Z,3.92
2018-03-27T21:15:41.746Z,2.65
2018-03-27T21:18:10.292Z,6.45
2018-03-27T21:20:38.364Z,3.28
2018-03-27T21:23:05.975Z,3.40
2018-03-27T21:25:33.546Z,3.10
2018-03-27T21:28:01.142Z,7.90
2018-03-27T21:30:29.428Z,8.32
2018-03-27T21:32:56.986Z,6.15
2018-03-27T21:35:24.619Z,4.05
2018-03-27T21:37:52.370Z,3.03
2018-03-27T21:40:19.936Z,4.62
2018-03-27T21:42:47.486Z,4.97
2018-03-27T21:45:15.305Z,3.15
2018-03-27T21:47:43.159Z,4.07
2018-03-27T21:50:11.680Z,7.68
2018-03-27T21:52:39.872Z,3.90
2018-03-27T21:55:07.440Z,4.65
2018-03-27T21:57:35.623Z,8.35
2018-03-27T22:00:03.931Z,6.47
2018-03-27T22:02:31.512Z,6.80
2018-03-27T22:04:59.078Z,8.77
2018-03-27T22:07:26.716Z,5.70
2018-03-27T22:09:55.082Z,7.70
2018-03-27T22:12:23.632Z,7.72
2018-03-27T22:14:51.342Z,7.00
2018-03-27T22:17:19.465Z,6.32
2018-03-27T22:19:47.574Z,3.25
2018-03-27T22:22:15.895Z,4.35
2018-03-27T22:24:43.789Z,4.47
2018-03-27T22:27:13.347Z,3.92
2018-03-27T22:29:40.962Z,4.37
2018-03-27T22:32:08.597Z,4.62
2018-03-27T22:34:36.182Z,3.72
2018-03-27T22:37:03.743Z,6.90
2018-03-27T22:39:31.328Z,2.83
2018-03-27T22:41:58.971Z,5.50
2018-03-27T22:44:26.548Z,3.53
2018-03-27T22:46:54.166Z,5.62
2018-03-27T22:49:21.769Z,6.12
2018-03-27T22:51:50.078Z,6.43
2018-03-27T22:54:17.657Z,8.13
2018-03-27T22:56:46.042Z,9.88
2018-03-27T22:59:14.375Z,4.87
2018-03-27T23:01:43.306Z,4.28
2018-03-27T23:04:10.860Z,3.35
2018-03-27T23:06:38.420Z,6.78
2018-03-27T23:09:06.563Z,3.12
2018-03-27T23:11:34.799Z,4.65
2018-03-27T23:14:02.370Z,5.03
2018-03-27T23:16:29.942Z,4.03
2018-03-27T23:18:58.109Z,5.87
2018-03-27T23:21:26.623Z,5.70
2018-03-27T23:23:54.322Z,2.92
2018-03-27T23:26:22.709Z,7.12
2018-03-27T23:28:50.351Z,6.28
2018-03-27T23:31:17.934Z,5.35
2018-03-27T23:33:45.608Z,4.65
2018-03-27T23:36:13.850Z,5.87
2018-03-27T23:38:43.426Z,3.95
2018-03-27T23:41:11.154Z,4.47
2018-03-27T23:43:38.744Z,5.47
2018-03-27T23:46:06.321Z,5.95
2018-03-27T23:48:33.943Z,4.68
2018-03-27T23:51:02.221Z,3.12
2018-03-27T23:53:29.789Z,4.53
2018-03-27T23:55:57.407Z,3.92
2018-03-27T23:58:25.732Z,4.53
